sensor_id;sensor_type;location;lat;lon;timestamp;temperature;humidity
9446;DHT22;4761;49.490;10.908;2023-09-19T00:01:14;24.20;60.10
9446;DHT22;4761;49.490;10.908;2023-09-19T00:03:40;24.20;60.10
9446;DHT22;4761;49.490;10.908;2023-09-19T00:06:07;24.20;60.10
9446;DHT22;4761;49.490;10.908;2023-09-19T00:08:34;24.20;60.00
9446;DHT22;4761;49.490;10.908;2023-09-19T00:11:00;24.20;60.00
9446;DHT22;4761;49.490;10.908;2023-09-19T00:13:32;24.20;60.00
9446;DHT22;4761;49.490;10.908;2023-09-19T00:15:57;24.20;60.00
9446;DHT22;4761;49.490;10.908;2023-09-19T00:18:25;24.20;59.90
9446;DHT22;4761;49.490;10.908;2023-09-19T00:20:58;24.20;59.90
9446;DHT22;4761;49.490;10.908;2023-09-19T00:23:24;24.20;59.90
9446;DHT22;4761;49.490;10.908;2023-09-19T00:25:50;24.20;59.90
9446;DHT22;4761;49.490;10.908;2023-09-19T00:28:17;24.20;59.90
9446;DHT22;4761;49.490;10.908;2023-09-19T00:30:44;24.20;59.90
9446;DHT22;4761;49.490;10.908;2023-09-19T00:33:10;24.10;59.80
9446;DHT22;4761;49.490;10.908;2023-09-19T00:35:37;24.20;59.80
9446;DHT22;4761;49.490;10.908;2023-09-19T00:38:02;24.10;59.70
9446;DHT22;4761;49.490;10.908;2023-09-19T00:40:29;24.10;59.70
9446;DHT22;4761;49.490;10.908;2023-09-19T00:42:58;24.10;59.70
9446;DHT22;4761;49.490;10.908;2023-09-19T00:45:26;24.20;59.80
9446;DHT22;4761;49.490;10.908;2023-09-19T00:47:53;24.10;59.70
9446;DHT22;4761;49.490;10.908;2023-09-19T00:50:21;24.10;59.70
9446;DHT22;4761;49.490;10.908;2023-09-19T00:52:48;24.10;59.70
9446;DHT22;4761;49.490;10.908;2023-09-19T00:55:16;24.10;59.60
9446;DHT22;4761;49.490;10.908;2023-09-19T00:57:42;24.10;59.60
9446;DHT22;4761;49.490;10.908;2023-09-19T01:00:09;24.10;59.60
9446;DHT22;4761;49.490;10.908;2023-09-19T01:02:44;24.10;59.60
9446;DHT22;4761;49.490;10.908;2023-09-19T01:05:10;24.10;59.60
9446;DHT22;4761;49.490;10.908;2023-09-19T01:07:36;24.10;59.60
9446;DHT22;4761;49.490;10.908;2023-09-19T01:10:06;24.10;59.60
9446;DHT22;4761;49.490;10.908;2023-09-19T01:21:22;24.10;59.50
9446;DHT22;4761;49.490;10.908;2023-09-19T01:29:34;24.10;59.50
9446;DHT22;4761;49.490;10.908;2023-09-19T01:32:05;24.00;59.50
9446;DHT22;4761;49.490;10.908;2023-09-19T01:34:55;24.00;59.40
9446;DHT22;4761;49.490;10.908;2023-09-19T01:37:30;24.10;59.40
9446;DHT22;4761;49.490;10.908;2023-09-19T01:40:00;24.00;59.40
9446;DHT22;4761;49.490;10.908;2023-09-19T01:45:35;24.10;59.40
9446;DHT22;4761;49.490;10.908;2023-09-19T01:48:27;24.10;59.40
9446;DHT22;4761;49.490;10.908;2023-09-19T01:53:30;24.00;59.30
9446;DHT22;4761;49.490;10.908;2023-09-19T01:55:59;24.00;59.40
9446;DHT22;4761;49.490;10.908;2023-09-19T01:58:41;24.10;59.40
9446;DHT22;4761;49.490;10.908;2023-09-19T02:01:12;24.10;59.40
9446;DHT22;4761;49.490;10.908;2023-09-19T02:03:41;24.10;59.40
9446;DHT22;4761;49.490;10.908;2023-09-19T02:06:07;24.10;59.40
9446;DHT22;4761;49.490;10.908;2023-09-19T02:08:37;24.10;59.30
9446;DHT22;4761;49.490;10.908;2023-09-19T02:11:02;24.10;59.40
9446;DHT22;4761;49.490;10.908;2023-09-19T02:13:28;24.10;59.30
9446;DHT22;4761;49.490;10.908;2023-09-19T02:15:57;24.10;59.30
9446;DHT22;4761;49.490;10.908;2023-09-19T02:18:22;24.10;59.30
9446;DHT22;4761;49.490;10.908;2023-09-19T02:20:48;24.10;59.20
9446;DHT22;4761;49.490;10.908;2023-09-19T02:23:14;24.10;59.20
9446;DHT22;4761;49.490;10.908;2023-09-19T02:25:41;24.10;59.30
9446;DHT22;4761;49.490;10.908;2023-09-19T02:28:06;24.10;59.20
9446;DHT22;4761;49.490;10.908;2023-09-19T02:30:34;24.10;59.30
9446;DHT22;4761;49.490;10.908;2023-09-19T02:33:00;24.10;59.20
9446;DHT22;4761;49.490;10.908;2023-09-19T02:35:27;24.10;59.20
9446;DHT22;4761;49.490;10.908;2023-09-19T02:37:53;24.10;59.20
9446;DHT22;4761;49.490;10.908;2023-09-19T02:40:19;24.10;59.20
9446;DHT22;4761;49.490;10.908;2023-09-19T02:42:48;24.10;59.20
9446;DHT22;4761;49.490;10.908;2023-09-19T02:45:16;24.10;59.20
9446;DHT22;4761;49.490;10.908;2023-09-19T02:47:43;24.10;59.20
9446;DHT22;4761;49.490;10.908;2023-09-19T02:50:09;24.10;59.10
9446;DHT22;4761;49.490;10.908;2023-09-19T02:52:44;24.10;59.10
9446;DHT22;4761;49.490;10.908;2023-09-19T02:55:13;24.10;59.10
9446;DHT22;4761;49.490;10.908;2023-09-19T02:57:53;24.10;59.10
9446;DHT22;4761;49.490;10.908;2023-09-19T03:00:20;24.10;59.10
9446;DHT22;4761;49.490;10.908;2023-09-19T03:02:53;24.10;59.10
9446;DHT22;4761;49.490;10.908;2023-09-19T03:05:20;24.10;59.10
9446;DHT22;4761;49.490;10.908;2023-09-19T03:07:47;24.10;59.10
9446;DHT22;4761;49.490;10.908;2023-09-19T03:10:16;24.10;59.10
9446;DHT22;4761;49.490;10.908;2023-09-19T03:12:41;24.10;59.10
9446;DHT22;4761;49.490;10.908;2023-09-19T03:15:08;24.10;59.10
9446;DHT22;4761;49.490;10.908;2023-09-19T03:17:34;24.10;59.10
9446;DHT22;4761;49.490;10.908;2023-09-19T03:19:59;24.10;59.10
9446;DHT22;4761;49.490;10.908;2023-09-19T03:22:27;24.10;59.00
9446;DHT22;4761;49.490;10.908;2023-09-19T03:24:53;24.10;59.10
9446;DHT22;4761;49.490;10.908;2023-09-19T03:27:18;24.10;59.10
9446;DHT22;4761;49.490;10.908;2023-09-19T03:29:45;24.10;59.10
9446;DHT22;4761;49.490;10.908;2023-09-19T03:32:10;24.10;59.00
9446;DHT22;4761;49.490;10.908;2023-09-19T03:34:37;24.10;59.10
9446;DHT22;4761;49.490;10.908;2023-09-19T03:37:05;24.10;59.00
9446;DHT22;4761;49.490;10.908;2023-09-19T03:39:32;24.10;59.00
9446;DHT22;4761;49.490;10.908;2023-09-19T03:41:57;24.10;58.90
9446;DHT22;4761;49.490;10.908;2023-09-19T03:44:23;24.10;58.80
9446;DHT22;4761;49.490;10.908;2023-09-19T03:46:48;24.10;58.80
9446;DHT22;4761;49.490;10.908;2023-09-19T03:49:14;24.10;58.70
9446;DHT22;4761;49.490;10.908;2023-09-19T03:51:39;24.20;58.80
9446;DHT22;4761;49.490;10.908;2023-09-19T03:54:07;24.20;58.80
9446;DHT22;4761;49.490;10.908;2023-09-19T03:56:32;24.20;58.80
9446;DHT22;4761;49.490;10.908;2023-09-19T03:58:58;24.20;58.80
9446;DHT22;4761;49.490;10.908;2023-09-19T04:01:24;24.10;58.60
9446;DHT22;4761;49.490;10.908;2023-09-19T04:03:49;24.20;58.80
9446;DHT22;4761;49.490;10.908;2023-09-19T04:06:17;24.20;58.80
9446;DHT22;4761;49.490;10.908;2023-09-19T04:08:43;24.20;58.80
9446;DHT22;4761;49.490;10.908;2023-09-19T04:11:10;24.20;58.70
9446;DHT22;4761;49.490;10.908;2023-09-19T04:13:36;24.10;58.60
9446;DHT22;4761;49.490;10.908;2023-09-19T04:16:02;24.20;58.70
9446;DHT22;4761;49.490;10.908;2023-09-19T04:18:29;24.10;58.60
9446;DHT22;4761;49.490;10.908;2023-09-19T04:20:56;24.20;58.80
9446;DHT22;4761;49.490;10.908;2023-09-19T04:23:21;24.10;58.60
9446;DHT22;4761;49.490;10.908;2023-09-19T04:25:47;24.20;58.70
9446;DHT22;4761;49.490;10.908;2023-09-19T04:28:13;24.20;58.70
9446;DHT22;4761;49.490;10.908;2023-09-19T04:30:39;24.20;58.70
9446;DHT22;4761;49.490;10.908;2023-09-19T04:33:07;24.20;58.70
9446;DHT22;4761;49.490;10.908;2023-09-19T04:35:33;24.10;58.60
9446;DHT22;4761;49.490;10.908;2023-09-19T04:37:59;24.20;58.60
9446;DHT22;4761;49.490;10.908;2023-09-19T04:40:25;24.20;58.60
9446;DHT22;4761;49.490;10.908;2023-09-19T04:42:56;24.20;58.70
9446;DHT22;4761;49.490;10.908;2023-09-19T04:45:26;24.20;58.60
9446;DHT22;4761;49.490;10.908;2023-09-19T04:47:52;24.10;58.60
9446;DHT22;4761;49.490;10.908;2023-09-19T04:50:18;24.20;58.70
9446;DHT22;4761;49.490;10.908;2023-09-19T04:52:45;24.20;58.70
9446;DHT22;4761;49.490;10.908;2023-09-19T04:55:13;24.10;58.50
9446;DHT22;4761;49.490;10.908;2023-09-19T04:57:45;24.10;58.60
9446;DHT22;4761;49.490;10.908;2023-09-19T05:00:16;24.20;58.60
9446;DHT22;4761;49.490;10.908;2023-09-19T05:02:45;24.20;58.60
9446;DHT22;4761;49.490;10.908;2023-09-19T05:05:11;24.20;58.70
9446;DHT22;4761;49.490;10.908;2023-09-19T05:07:39;24.10;58.50
9446;DHT22;4761;49.490;10.908;2023-09-19T05:10:05;24.20;58.60
9446;DHT22;4761;49.490;10.908;2023-09-19T05:12:33;24.10;58.60
9446;DHT22;4761;49.490;10.908;2023-09-19T05:14:59;24.10;58.50
9446;DHT22;4761;49.490;10.908;2023-09-19T05:17:25;24.10;58.50
9446;DHT22;4761;49.490;10.908;2023-09-19T05:19:50;24.10;58.50
9446;DHT22;4761;49.490;10.908;2023-09-19T05:22:16;24.10;58.50
9446;DHT22;4761;49.490;10.908;2023-09-19T05:24:44;24.10;58.50
9446;DHT22;4761;49.490;10.908;2023-09-19T05:27:12;24.10;58.60
9446;DHT22;4761;49.490;10.908;2023-09-19T05:29:38;24.10;58.50
9446;DHT22;4761;49.490;10.908;2023-09-19T05:32:03;24.10;58.60
9446;DHT22;4761;49.490;10.908;2023-09-19T05:34:31;24.10;58.60
9446;DHT22;4761;49.490;10.908;2023-09-19T05:36:56;24.10;58.60
9446;DHT22;4761;49.490;10.908;2023-09-19T05:39:22;24.10;58.60
9446;DHT22;4761;49.490;10.908;2023-09-19T05:41:48;24.10;58.60
9446;DHT22;4761;49.490;10.908;2023-09-19T05:44:13;24.10;58.60
9446;DHT22;4761;49.490;10.908;2023-09-19T05:46:41;24.20;58.70
9446;DHT22;4761;49.490;10.908;2023-09-19T05:49:07;24.10;58.60
9446;DHT22;4761;49.490;10.908;2023-09-19T05:51:33;24.10;58.60
9446;DHT22;4761;49.490;10.908;2023-09-19T05:54:01;24.10;58.60
9446;DHT22;4761;49.490;10.908;2023-09-19T05:56:26;24.10;58.60
9446;DHT22;4761;49.490;10.908;2023-09-19T05:58:52;24.20;58.70
9446;DHT22;4761;49.490;10.908;2023-09-19T06:01:18;24.10;58.60
9446;DHT22;4761;49.490;10.908;2023-09-19T06:03:44;24.10;58.60
9446;DHT22;4761;49.490;10.908;2023-09-19T06:06:09;24.10;58.60
9446;DHT22;4761;49.490;10.908;2023-09-19T06:08:35;24.10;58.70
9446;DHT22;4761;49.490;10.908;2023-09-19T06:11:01;24.10;58.70
9446;DHT22;4761;49.490;10.908;2023-09-19T06:13:29;24.20;58.80
9446;DHT22;4761;49.490;10.908;2023-09-19T06:15:55;24.20;58.80
9446;DHT22;4761;49.490;10.908;2023-09-19T06:18:22;24.10;58.70
9446;DHT22;4761;49.490;10.908;2023-09-19T06:20:51;24.10;58.70
9446;DHT22;4761;49.490;10.908;2023-09-19T06:23:17;24.10;58.70
9446;DHT22;4761;49.490;10.908;2023-09-19T06:25:45;24.10;58.80
9446;DHT22;4761;49.490;10.908;2023-09-19T06:28:10;24.20;58.80
9446;DHT22;4761;49.490;10.908;2023-09-19T06:30:38;24.10;58.70
9446;DHT22;4761;49.490;10.908;2023-09-19T06:33:05;24.10;58.70
9446;DHT22;4761;49.490;10.908;2023-09-19T06:35:34;24.10;58.80
9446;DHT22;4761;49.490;10.908;2023-09-19T06:38:03;24.10;58.80
9446;DHT22;4761;49.490;10.908;2023-09-19T06:40:29;24.10;58.80
9446;DHT22;4761;49.490;10.908;2023-09-19T06:42:56;24.20;58.80
9446;DHT22;4761;49.490;10.908;2023-09-19T06:45:22;24.10;58.80
9446;DHT22;4761;49.490;10.908;2023-09-19T06:47:49;24.10;58.80
9446;DHT22;4761;49.490;10.908;2023-09-19T06:50:15;24.10;58.80
9446;DHT22;4761;49.490;10.908;2023-09-19T06:52:45;24.10;58.80
9446;DHT22;4761;49.490;10.908;2023-09-19T06:55:12;24.10;58.90
9446;DHT22;4761;49.490;10.908;2023-09-19T06:57:39;24.10;59.00
9446;DHT22;4761;49.490;10.908;2023-09-19T07:00:06;24.20;59.00
9446;DHT22;4761;49.490;10.908;2023-09-19T07:02:41;24.10;58.90
9446;DHT22;4761;49.490;10.908;2023-09-19T07:05:07;24.20;59.10
9446;DHT22;4761;49.490;10.908;2023-09-19T07:07:32;24.20;59.10
9446;DHT22;4761;49.490;10.908;2023-09-19T07:10:01;24.20;59.10
9446;DHT22;4761;49.490;10.908;2023-09-19T07:12:26;24.20;59.10
9446;DHT22;4761;49.490;10.908;2023-09-19T07:14:52;24.10;59.00
9446;DHT22;4761;49.490;10.908;2023-09-19T07:17:17;24.20;59.10
9446;DHT22;4761;49.490;10.908;2023-09-19T07:19:44;24.20;59.10
9446;DHT22;4761;49.490;10.908;2023-09-19T07:22:10;24.20;59.10
9446;DHT22;4761;49.490;10.908;2023-09-19T07:24:36;24.20;59.10
9446;DHT22;4761;49.490;10.908;2023-09-19T07:27:02;24.20;59.10
9446;DHT22;4761;49.490;10.908;2023-09-19T07:29:28;24.20;59.10
9446;DHT22;4761;49.490;10.908;2023-09-19T07:31:53;24.20;59.10
9446;DHT22;4761;49.490;10.908;2023-09-19T07:34:19;24.20;59.10
9446;DHT22;4761;49.490;10.908;2023-09-19T07:36:47;24.20;59.10
9446;DHT22;4761;49.490;10.908;2023-09-19T07:39:13;24.20;59.10
9446;DHT22;4761;49.490;10.908;2023-09-19T07:41:38;24.20;59.10
9446;DHT22;4761;49.490;10.908;2023-09-19T07:44:04;24.20;59.10
9446;DHT22;4761;49.490;10.908;2023-09-19T07:46:30;24.20;59.10
9446;DHT22;4761;49.490;10.908;2023-09-19T07:48:56;24.20;59.10
9446;DHT22;4761;49.490;10.908;2023-09-19T07:51:22;24.20;59.10
9446;DHT22;4761;49.490;10.908;2023-09-19T07:53:48;24.20;59.10
9446;DHT22;4761;49.490;10.908;2023-09-19T07:56:14;24.20;59.20
9446;DHT22;4761;49.490;10.908;2023-09-19T07:58:40;24.20;59.10
9446;DHT22;4761;49.490;10.908;2023-09-19T08:01:10;24.20;59.10
9446;DHT22;4761;49.490;10.908;2023-09-19T08:03:36;24.30;59.20
9446;DHT22;4761;49.490;10.908;2023-09-19T08:06:07;24.20;59.10
9446;DHT22;4761;49.490;10.908;2023-09-19T08:08:33;24.20;59.10
9446;DHT22;4761;49.490;10.908;2023-09-19T08:11:03;24.20;59.10
9446;DHT22;4761;49.490;10.908;2023-09-19T08:13:36;24.20;59.10
9446;DHT22;4761;49.490;10.908;2023-09-19T08:16:03;24.20;59.10
9446;DHT22;4761;49.490;10.908;2023-09-19T08:18:29;24.20;59.00
9446;DHT22;4761;49.490;10.908;2023-09-19T08:20:55;24.20;59.00
9446;DHT22;4761;49.490;10.908;2023-09-19T08:23:24;24.20;59.00
9446;DHT22;4761;49.490;10.908;2023-09-19T08:25:49;24.20;59.00
9446;DHT22;4761;49.490;10.908;2023-09-19T08:28:15;24.20;59.10
9446;DHT22;4761;49.490;10.908;2023-09-19T08:30:47;24.20;59.00
9446;DHT22;4761;49.490;10.908;2023-09-19T08:33:13;24.20;59.00
9446;DHT22;4761;49.490;10.908;2023-09-19T08:35:40;24.20;59.10
9446;DHT22;4761;49.490;10.908;2023-09-19T08:38:09;24.20;59.10
9446;DHT22;4761;49.490;10.908;2023-09-19T08:40:42;24.20;59.10
9446;DHT22;4761;49.490;10.908;2023-09-19T08:43:09;24.30;59.20
9446;DHT22;4761;49.490;10.908;2023-09-19T08:45:34;24.20;59.10
9446;DHT22;4761;49.490;10.908;2023-09-19T08:51:18;24.30;59.20
9446;DHT22;4761;49.490;10.908;2023-09-19T08:53:54;24.30;59.20
9446;DHT22;4761;49.490;10.908;2023-09-19T08:56:25;24.30;59.20
9446;DHT22;4761;49.490;10.908;2023-09-19T08:58:59;24.30;59.20
9446;DHT22;4761;49.490;10.908;2023-09-19T09:01:27;24.30;59.30
9446;DHT22;4761;49.490;10.908;2023-09-19T09:03:54;24.30;59.50
9446;DHT22;4761;49.490;10.908;2023-09-19T09:06:21;24.30;59.50
9446;DHT22;4761;49.490;10.908;2023-09-19T09:08:47;24.30;59.50
9446;DHT22;4761;49.490;10.908;2023-09-19T09:11:16;24.30;59.60
9446;DHT22;4761;49.490;10.908;2023-09-19T09:13:43;24.30;59.60
9446;DHT22;4761;49.490;10.908;2023-09-19T09:16:10;24.30;59.60
9446;DHT22;4761;49.490;10.908;2023-09-19T09:18:36;24.40;59.80
9446;DHT22;4761;49.490;10.908;2023-09-19T09:21:02;24.40;59.70
9446;DHT22;4761;49.490;10.908;2023-09-19T09:23:30;24.40;59.70
9446;DHT22;4761;49.490;10.908;2023-09-19T09:25:57;24.40;59.80
9446;DHT22;4761;49.490;10.908;2023-09-19T09:28:27;24.40;59.80
9446;DHT22;4761;49.490;10.908;2023-09-19T09:30:57;24.40;59.80
9446;DHT22;4761;49.490;10.908;2023-09-19T09:33:34;24.40;59.70
9446;DHT22;4761;49.490;10.908;2023-09-19T09:36:01;24.50;59.70
9446;DHT22;4761;49.490;10.908;2023-09-19T09:38:29;24.50;59.70
9446;DHT22;4761;49.490;10.908;2023-09-19T09:40:58;24.50;59.70
9446;DHT22;4761;49.490;10.908;2023-09-19T09:46:18;24.40;59.70
9446;DHT22;4761;49.490;10.908;2023-09-19T09:49:00;24.50;59.70
9446;DHT22;4761;49.490;10.908;2023-09-19T09:51:57;24.40;59.70
9446;DHT22;4761;49.490;10.908;2023-09-19T09:54:25;24.40;59.70
9446;DHT22;4761;49.490;10.908;2023-09-19T09:56:58;24.40;59.80
9446;DHT22;4761;49.490;10.908;2023-09-19T09:59:51;24.40;59.80
9446;DHT22;4761;49.490;10.908;2023-09-19T10:02:28;24.40;59.80
9446;DHT22;4761;49.490;10.908;2023-09-19T10:05:22;24.40;59.90
9446;DHT22;4761;49.490;10.908;2023-09-19T10:08:10;24.40;59.50
9446;DHT22;4761;49.490;10.908;2023-09-19T10:10:39;24.50;59.80
9446;DHT22;4761;49.490;10.908;2023-09-19T10:13:12;24.50;59.80
9446;DHT22;4761;49.490;10.908;2023-09-19T10:15:42;24.60;59.60
9446;DHT22;4761;49.490;10.908;2023-09-19T10:18:11;24.70;59.60
9446;DHT22;4761;49.490;10.908;2023-09-19T10:20:43;24.70;59.60
9446;DHT22;4761;49.490;10.908;2023-09-19T10:23:11;24.70;59.60
9446;DHT22;4761;49.490;10.908;2023-09-19T10:25:43;24.70;59.60
9446;DHT22;4761;49.490;10.908;2023-09-19T10:28:13;24.70;59.60
9446;DHT22;4761;49.490;10.908;2023-09-19T10:30:46;24.60;59.50
9446;DHT22;4761;49.490;10.908;2023-09-19T10:33:17;24.60;59.50
9446;DHT22;4761;49.490;10.908;2023-09-19T10:35:46;24.60;59.60
9446;DHT22;4761;49.490;10.908;2023-09-19T10:38:14;24.60;59.70
9446;DHT22;4761;49.490;10.908;2023-09-19T10:40:40;24.60;59.70
9446;DHT22;4761;49.490;10.908;2023-09-19T10:43:15;24.60;59.80
9446;DHT22;4761;49.490;10.908;2023-09-19T10:45:44;24.60;60.40
9446;DHT22;4761;49.490;10.908;2023-09-19T10:48:10;24.80;60.60
9446;DHT22;4761;49.490;10.908;2023-09-19T10:53:10;24.90;60.30
9446;DHT22;4761;49.490;10.908;2023-09-19T10:55:37;25.00;60.40
9446;DHT22;4761;49.490;10.908;2023-09-19T10:58:04;25.10;60.20
9446;DHT22;4761;49.490;10.908;2023-09-19T11:00:54;25.10;60.10
9446;DHT22;4761;49.490;10.908;2023-09-19T11:03:21;25.20;60.10
9446;DHT22;4761;49.490;10.908;2023-09-19T11:06:02;25.20;60.20
9446;DHT22;4761;49.490;10.908;2023-09-19T11:08:30;25.20;60.20
9446;DHT22;4761;49.490;10.908;2023-09-19T11:10:58;25.20;60.20
9446;DHT22;4761;49.490;10.908;2023-09-19T11:13:31;25.30;60.50
9446;DHT22;4761;49.490;10.908;2023-09-19T11:26:50;25.40;60.80
9446;DHT22;4761;49.490;10.908;2023-09-19T11:29:27;25.30;60.80
9446;DHT22;4761;49.490;10.908;2023-09-19T11:31:54;25.30;60.80
9446;DHT22;4761;49.490;10.908;2023-09-19T11:39:39;25.40;61.10
9446;DHT22;4761;49.490;10.908;2023-09-19T11:42:46;25.40;61.00
9446;DHT22;4761;49.490;10.908;2023-09-19T11:48:16;25.40;61.00
9446;DHT22;4761;49.490;10.908;2023-09-19T11:50:45;25.40;61.40
9446;DHT22;4761;49.490;10.908;2023-09-19T11:53:11;25.40;62.30
9446;DHT22;4761;49.490;10.908;2023-09-19T11:55:41;25.40;62.90
9446;DHT22;4761;49.490;10.908;2023-09-19T11:58:19;25.40;63.90
9446;DHT22;4761;49.490;10.908;2023-09-19T12:00:45;25.40;63.50
9446;DHT22;4761;49.490;10.908;2023-09-19T12:03:12;25.40;64.50
9446;DHT22;4761;49.490;10.908;2023-09-19T12:05:39;25.40;64.90
9446;DHT22;4761;49.490;10.908;2023-09-19T12:08:05;25.40;65.20
9446;DHT22;4761;49.490;10.908;2023-09-19T12:10:50;25.50;65.60
9446;DHT22;4761;49.490;10.908;2023-09-19T12:13:20;25.50;66.10
9446;DHT22;4761;49.490;10.908;2023-09-19T12:15:46;25.50;66.50
9446;DHT22;4761;49.490;10.908;2023-09-19T12:18:31;25.50;66.70
9446;DHT22;4761;49.490;10.908;2023-09-19T12:20:58;25.50;67.20
9446;DHT22;4761;49.490;10.908;2023-09-19T12:23:25;25.50;67.10
9446;DHT22;4761;49.490;10.908;2023-09-19T12:25:51;25.50;67.20
9446;DHT22;4761;49.490;10.908;2023-09-19T12:28:19;25.50;67.40
9446;DHT22;4761;49.490;10.908;2023-09-19T12:30:47;25.50;67.70
9446;DHT22;4761;49.490;10.908;2023-09-19T12:33:17;25.50;68.00
9446;DHT22;4761;49.490;10.908;2023-09-19T12:35:45;25.50;68.20
9446;DHT22;4761;49.490;10.908;2023-09-19T12:38:10;25.60;68.20
9446;DHT22;4761;49.490;10.908;2023-09-19T12:40:38;25.60;68.50
9446;DHT22;4761;49.490;10.908;2023-09-19T12:43:08;25.60;68.80
9446;DHT22;4761;49.490;10.908;2023-09-19T12:45:34;25.60;68.70
9446;DHT22;4761;49.490;10.908;2023-09-19T12:51:09;25.60;68.90
9446;DHT22;4761;49.490;10.908;2023-09-19T12:53:39;25.60;69.40
9446;DHT22;4761;49.490;10.908;2023-09-19T12:56:09;25.50;69.50
9446;DHT22;4761;49.490;10.908;2023-09-19T12:58:55;25.50;69.60
9446;DHT22;4761;49.490;10.908;2023-09-19T13:01:22;25.50;69.60
9446;DHT22;4761;49.490;10.908;2023-09-19T13:04:17;25.40;69.90
9446;DHT22;4761;49.490;10.908;2023-09-19T13:06:45;25.40;70.00
9446;DHT22;4761;49.490;10.908;2023-09-19T13:09:14;25.40;69.90
9446;DHT22;4761;49.490;10.908;2023-09-19T13:11:40;25.40;70.20
9446;DHT22;4761;49.490;10.908;2023-09-19T13:14:25;25.40;70.20
9446;DHT22;4761;49.490;10.908;2023-09-19T13:17:05;25.30;70.10
9446;DHT22;4761;49.490;10.908;2023-09-19T13:19:51;25.30;70.30
9446;DHT22;4761;49.490;10.908;2023-09-19T13:22:39;25.30;70.50
9446;DHT22;4761;49.490;10.908;2023-09-19T13:25:09;25.20;70.30
9446;DHT22;4761;49.490;10.908;2023-09-19T13:27:40;25.10;70.20
9446;DHT22;4761;49.490;10.908;2023-09-19T13:30:06;25.10;70.60
9446;DHT22;4761;49.490;10.908;2023-09-19T13:32:32;25.10;70.70
9446;DHT22;4761;49.490;10.908;2023-09-19T13:34:58;25.10;71.00
9446;DHT22;4761;49.490;10.908;2023-09-19T13:37:24;25.10;70.80
9446;DHT22;4761;49.490;10.908;2023-09-19T13:39:49;25.00;70.50
9446;DHT22;4761;49.490;10.908;2023-09-19T13:42:15;25.10;71.00
9446;DHT22;4761;49.490;10.908;2023-09-19T13:44:41;25.10;71.10
9446;DHT22;4761;49.490;10.908;2023-09-19T13:47:07;25.10;71.20
9446;DHT22;4761;49.490;10.908;2023-09-19T13:49:35;25.00;71.10
9446;DHT22;4761;49.490;10.908;2023-09-19T13:52:01;25.00;71.20
9446;DHT22;4761;49.490;10.908;2023-09-19T13:54:30;25.00;71.20
9446;DHT22;4761;49.490;10.908;2023-09-19T13:56:56;25.00;71.20
9446;DHT22;4761;49.490;10.908;2023-09-19T13:59:21;25.00;71.20
9446;DHT22;4761;49.490;10.908;2023-09-19T14:01:49;25.00;71.10
9446;DHT22;4761;49.490;10.908;2023-09-19T14:04:15;25.10;71.10
9446;DHT22;4761;49.490;10.908;2023-09-19T14:06:43;25.10;71.00
9446;DHT22;4761;49.490;10.908;2023-09-19T14:09:09;25.10;70.90
9446;DHT22;4761;49.490;10.908;2023-09-19T14:11:36;25.00;70.70
9446;DHT22;4761;49.490;10.908;2023-09-19T14:14:02;25.00;70.60
9446;DHT22;4761;49.490;10.908;2023-09-19T14:16:30;25.00;70.80
9446;DHT22;4761;49.490;10.908;2023-09-19T14:18:56;25.00;70.90
9446;DHT22;4761;49.490;10.908;2023-09-19T14:21:23;24.90;70.90
9446;DHT22;4761;49.490;10.908;2023-09-19T14:23:48;24.90;71.10
9446;DHT22;4761;49.490;10.908;2023-09-19T14:26:14;24.90;71.10
9446;DHT22;4761;49.490;10.908;2023-09-19T14:28:41;24.90;71.20
9446;DHT22;4761;49.490;10.908;2023-09-19T14:31:07;24.80;71.20
9446;DHT22;4761;49.490;10.908;2023-09-19T14:33:33;24.90;71.30
9446;DHT22;4761;49.490;10.908;2023-09-19T14:36:02;24.90;71.40
9446;DHT22;4761;49.490;10.908;2023-09-19T14:38:28;24.80;71.20
9446;DHT22;4761;49.490;10.908;2023-09-19T14:41:01;24.80;71.30
9446;DHT22;4761;49.490;10.908;2023-09-19T14:43:26;24.80;71.20
9446;DHT22;4761;49.490;10.908;2023-09-19T14:45:54;24.80;71.30
9446;DHT22;4761;49.490;10.908;2023-09-19T14:48:19;24.80;71.30
9446;DHT22;4761;49.490;10.908;2023-09-19T14:50:45;24.80;71.30
9446;DHT22;4761;49.490;10.908;2023-09-19T14:53:13;24.80;71.20
9446;DHT22;4761;49.490;10.908;2023-09-19T14:55:39;24.80;71.20
9446;DHT22;4761;49.490;10.908;2023-09-19T14:58:07;24.80;71.20
9446;DHT22;4761;49.490;10.908;2023-09-19T15:00:33;24.80;71.10
9446;DHT22;4761;49.490;10.908;2023-09-19T15:02:59;24.70;70.70
9446;DHT22;4761;49.490;10.908;2023-09-19T15:05:25;24.80;70.70
9446;DHT22;4761;49.490;10.908;2023-09-19T15:07:50;24.70;70.50
9446;DHT22;4761;49.490;10.908;2023-09-19T15:10:16;24.70;70.30
9446;DHT22;4761;49.490;10.908;2023-09-19T15:12:43;24.70;70.20
9446;DHT22;4761;49.490;10.908;2023-09-19T15:15:09;24.70;70.30
9446;DHT22;4761;49.490;10.908;2023-09-19T15:17:35;24.80;70.30
9446;DHT22;4761;49.490;10.908;2023-09-19T15:20:01;24.70;70.40
9446;DHT22;4761;49.490;10.908;2023-09-19T15:22:27;24.70;70.40
9446;DHT22;4761;49.490;10.908;2023-09-19T15:24:53;24.70;70.40
9446;DHT22;4761;49.490;10.908;2023-09-19T15:27:18;24.70;70.40
9446;DHT22;4761;49.490;10.908;2023-09-19T15:29:45;24.70;70.20
9446;DHT22;4761;49.490;10.908;2023-09-19T15:32:11;24.70;70.10
9446;DHT22;4761;49.490;10.908;2023-09-19T15:34:37;24.70;70.10
9446;DHT22;4761;49.490;10.908;2023-09-19T15:37:02;24.70;70.10
9446;DHT22;4761;49.490;10.908;2023-09-19T15:39:30;24.70;70.10
9446;DHT22;4761;49.490;10.908;2023-09-19T15:41:58;24.70;70.20
9446;DHT22;4761;49.490;10.908;2023-09-19T15:44:24;24.70;70.40
9446;DHT22;4761;49.490;10.908;2023-09-19T15:46:52;24.70;70.30
9446;DHT22;4761;49.490;10.908;2023-09-19T15:49:18;24.70;70.40
9446;DHT22;4761;49.490;10.908;2023-09-19T15:51:44;24.60;70.20
9446;DHT22;4761;49.490;10.908;2023-09-19T15:54:11;24.60;70.30
9446;DHT22;4761;49.490;10.908;2023-09-19T15:56:41;24.70;70.40
9446;DHT22;4761;49.490;10.908;2023-09-19T15:59:07;24.70;70.40
9446;DHT22;4761;49.490;10.908;2023-09-19T16:01:32;24.60;70.40
9446;DHT22;4761;49.490;10.908;2023-09-19T16:03:58;24.70;70.20
9446;DHT22;4761;49.490;10.908;2023-09-19T16:06:26;24.60;70.10
9446;DHT22;4761;49.490;10.908;2023-09-19T16:08:53;24.60;70.00
9446;DHT22;4761;49.490;10.908;2023-09-19T16:11:20;24.60;70.10
9446;DHT22;4761;49.490;10.908;2023-09-19T16:13:47;24.60;70.20
9446;DHT22;4761;49.490;10.908;2023-09-19T16:16:13;24.60;70.10
9446;DHT22;4761;49.490;10.908;2023-09-19T16:18:52;24.60;70.10
9446;DHT22;4761;49.490;10.908;2023-09-19T16:21:18;24.60;70.10
9446;DHT22;4761;49.490;10.908;2023-09-19T16:23:48;24.60;70.20
9446;DHT22;4761;49.490;10.908;2023-09-19T16:26:15;24.60;70.30
9446;DHT22;4761;49.490;10.908;2023-09-19T16:28:41;24.60;70.20
9446;DHT22;4761;49.490;10.908;2023-09-19T16:31:08;24.60;70.00
9446;DHT22;4761;49.490;10.908;2023-09-19T16:33:35;24.60;69.80
9446;DHT22;4761;49.490;10.908;2023-09-19T16:36:02;24.60;69.70
9446;DHT22;4761;49.490;10.908;2023-09-19T16:38:28;24.60;69.50
9446;DHT22;4761;49.490;10.908;2023-09-19T16:40:58;24.60;70.10
9446;DHT22;4761;49.490;10.908;2023-09-19T16:43:25;24.60;69.20